createdAt,value
2023-02-18T00:01:56.197Z,13.72
2023-02-18T00:04:25.204Z,13.72
2023-02-18T00:06:53.252Z,13.70
2023-02-18T00:09:23.184Z,13.66
2023-02-18T00:11:51.575Z,13.60
2023-02-18T00:14:20.182Z,13.56
2023-02-18T00:16:49.180Z,13.55
2023-02-18T00:19:18.657Z,13.62
2023-02-18T00:21:48.544Z,13.72
2023-02-18T00:24:17.151Z,13.74
2023-02-18T00:26:46.754Z,13.74
2023-02-18T00:29:14.922Z,13.73
2023-02-18T00:31:46.159Z,13.71
2023-02-18T00:34:15.073Z,13.67
2023-02-18T00:36:43.430Z,13.62
2023-02-18T00:39:12.959Z,13.59
2023-02-18T00:41:42.290Z,13.65
2023-02-18T00:44:11.478Z,13.72
2023-02-18T00:46:39.805Z,13.69
2023-02-18T00:49:09.882Z,13.64
2023-02-18T00:51:38.033Z,13.61
2023-02-18T00:54:06.219Z,13.57
2023-02-18T00:56:34.413Z,13.54
2023-02-18T00:59:02.632Z,13.51
2023-02-18T01:01:31.792Z,13.52
2023-02-18T01:04:00.080Z,13.62
2023-02-18T01:06:28.488Z,13.71
2023-02-18T01:08:56.829Z,13.73
2023-02-18T01:11:25.386Z,13.72
2023-02-18T01:13:53.766Z,13.70
2023-02-18T01:16:23.725Z,13.69
2023-02-18T01:18:51.981Z,13.68
2023-02-18T01:21:20.320Z,13.65
2023-02-18T01:23:49.994Z,13.61
2023-02-18T01:26:18.448Z,13.65
2023-02-18T01:28:48.252Z,13.71
2023-02-18T01:31:16.899Z,13.74
2023-02-18T01:33:46.442Z,13.72
2023-02-18T01:36:15.096Z,13.73
2023-02-18T01:38:43.214Z,13.71
2023-02-18T01:41:11.710Z,13.68
2023-02-18T01:43:40.038Z,13.67
2023-02-18T01:46:21.421Z,13.62
2023-02-18T01:49:00.486Z,13.66
2023-02-18T01:51:32.170Z,13.73
2023-02-18T01:54:27.964Z,13.75
2023-02-18T01:57:33.200Z,13.73
2023-02-18T02:00:14.056Z,13.65
2023-02-18T02:02:49.283Z,13.55
2023-02-18T02:05:18.239Z,13.52
2023-02-18T02:07:47.610Z,13.50
2023-02-18T02:10:16.992Z,13.49
2023-02-18T02:13:12.146Z,13.55
2023-02-18T02:16:03.298Z,13.67
2023-02-18T02:18:49.916Z,13.67
2023-02-18T02:21:40.477Z,13.63
2023-02-18T02:24:42.481Z,13.60
2023-02-18T02:27:16.824Z,13.56
2023-02-18T02:29:50.972Z,13.54
2023-02-18T02:32:51.804Z,13.51
2023-02-18T02:35:23.835Z,13.50
2023-02-18T02:38:07.889Z,13.55
2023-02-18T02:40:47.411Z,13.61
2023-02-18T02:43:32.165Z,13.64
2023-02-18T02:46:08.257Z,13.59
2023-02-18T02:48:46.793Z,13.56
2023-02-18T02:51:40.571Z,13.55
2023-02-18T02:54:14.398Z,13.52
2023-02-18T02:56:42.447Z,13.47
2023-02-18T02:59:21.165Z,13.45
2023-02-18T03:02:18.324Z,13.44
2023-02-18T03:05:08.158Z,13.50
2023-02-18T03:07:46.160Z,13.57
2023-02-18T03:10:52.588Z,13.58
2023-02-18T03:13:39.605Z,13.59
2023-02-18T03:16:14.042Z,13.60
2023-02-18T03:18:48.457Z,13.60
2023-02-18T03:21:42.483Z,13.58
2023-02-18T03:24:15.177Z,13.56
2023-02-18T03:26:49.736Z,13.53
2023-02-18T03:29:18.701Z,13.59
2023-02-18T03:31:55.186Z,13.64
2023-02-18T03:34:33.267Z,13.65
2023-02-18T03:37:05.549Z,13.65
2023-02-18T03:39:36.588Z,13.61
2023-02-18T03:42:05.590Z,13.59
2023-02-18T03:44:36.669Z,13.59
2023-02-18T03:47:04.786Z,13.65
2023-02-18T03:49:34.772Z,13.71
2023-02-18T03:52:02.911Z,13.72
2023-02-18T03:54:31.352Z,13.68
2023-02-18T03:56:59.513Z,13.68
2023-02-18T03:59:27.717Z,13.68
2023-02-18T04:01:56.073Z,13.70
2023-02-18T04:04:25.286Z,13.72
2023-02-18T04:06:53.672Z,13.79
2023-02-18T04:09:23.224Z,13.88
2023-02-18T04:11:51.502Z,13.91
2023-02-18T04:14:19.534Z,13.92
2023-02-18T04:16:51.843Z,13.92
2023-02-18T04:19:20.637Z,13.90
2023-02-18T04:21:49.823Z,13.89
2023-02-18T04:24:18.035Z,13.90
2023-02-18T04:26:46.177Z,13.92
2023-02-18T04:29:14.401Z,13.97
2023-02-18T04:31:42.591Z,14.00
2023-02-18T04:34:10.991Z,13.99
2023-02-18T04:36:39.062Z,14.00
2023-02-18T04:39:07.268Z,14.00
2023-02-18T04:41:35.520Z,14.03
2023-02-18T04:44:03.762Z,14.05
2023-02-18T04:46:32.699Z,14.12
2023-02-18T04:49:01.286Z,14.22
2023-02-18T04:51:29.846Z,14.26
2023-02-18T04:54:01.372Z,14.26
2023-02-18T04:56:29.701Z,14.27
2023-02-18T04:58:57.847Z,14.26
2023-02-18T05:01:26.127Z,14.24
2023-02-18T05:03:54.595Z,14.22
2023-02-18T05:06:22.661Z,14.28
2023-02-18T05:08:50.794Z,14.35
2023-02-18T05:11:18.999Z,14.36
2023-02-18T05:13:47.580Z,14.36
2023-02-18T05:16:16.922Z,14.36
2023-02-18T05:18:46.118Z,14.36
2023-02-18T05:21:14.183Z,14.35
2023-02-18T05:23:42.296Z,14.42
2023-02-18T05:26:10.893Z,14.54
2023-02-18T05:28:43.393Z,14.58
2023-02-18T05:31:11.619Z,14.60
2023-02-18T05:33:41.618Z,14.57
2023-02-18T05:36:09.911Z,14.56
2023-02-18T05:38:38.198Z,14.55
2023-02-18T05:41:06.373Z,14.55
2023-02-18T05:43:54.859Z,14.61
2023-02-18T05:46:23.488Z,14.69
2023-02-18T05:48:52.741Z,14.70
2023-02-18T05:51:20.779Z,14.71
2023-02-18T05:53:48.920Z,14.72
2023-02-18T05:56:17.163Z,14.75
2023-02-18T05:58:45.851Z,14.79
2023-02-18T06:01:14.001Z,14.79
2023-02-18T06:03:42.503Z,14.88
2023-02-18T06:06:10.804Z,14.97
2023-02-18T06:08:39.488Z,15.01
2023-02-18T06:11:07.543Z,15.01
2023-02-18T06:13:35.773Z,15.02
2023-02-18T06:16:04.468Z,15.04
2023-02-18T06:18:36.480Z,15.02
2023-02-18T06:21:05.170Z,15.06
2023-02-18T06:23:33.240Z,15.18
2023-02-18T06:26:01.832Z,15.37
2023-02-18T06:28:30.876Z,15.49
2023-02-18T06:30:59.060Z,15.58
2023-02-18T06:33:27.256Z,15.70
2023-02-18T06:36:00.203Z,15.88
2023-02-18T06:38:28.634Z,16.15
2023-02-18T06:40:56.913Z,16.44
2023-02-18T06:43:25.171Z,16.74
2023-02-18T06:45:53.297Z,16.98
2023-02-18T06:48:21.750Z,17.32
2023-02-18T06:50:50.380Z,17.71
2023-02-18T06:53:20.114Z,18.07
2023-02-18T06:55:49.756Z,18.39
2023-02-18T07:00:29.820Z,17.19
2023-02-18T07:02:58.329Z,18.08
2023-02-18T07:05:26.788Z,18.03
2023-02-18T07:07:55.371Z,17.90
2023-02-18T07:10:23.503Z,17.67
2023-02-18T07:12:55.300Z,17.32
2023-02-18T07:15:24.554Z,17.04
2023-02-18T07:17:52.787Z,16.90
2023-02-18T07:20:39.404Z,16.72
2023-02-18T07:23:07.640Z,16.59
2023-02-18T07:25:37.075Z,16.52
2023-02-18T07:28:05.764Z,16.49
2023-02-18T07:30:34.030Z,16.48
2023-02-18T07:33:04.066Z,16.45
2023-02-18T07:35:33.088Z,16.47
2023-02-18T07:38:03.480Z,16.50
2023-02-18T07:40:31.762Z,16.47
2023-02-18T07:43:00.246Z,16.41
2023-02-18T07:45:28.632Z,16.34
2023-02-18T07:47:56.796Z,16.27
2023-02-18T07:50:25.381Z,16.20
2023-02-18T07:52:53.587Z,16.10
2023-02-18T07:55:22.552Z,16.11
2023-02-18T07:58:02.454Z,16.20
2023-02-18T08:00:30.884Z,16.26
2023-02-18T08:02:59.271Z,16.32
2023-02-18T08:05:27.313Z,16.38
2023-02-18T08:07:55.853Z,16.44
2023-02-18T08:10:24.102Z,16.50
2023-02-18T08:12:52.218Z,16.51
2023-02-18T08:15:20.559Z,16.50
2023-02-18T08:17:49.296Z,16.54
2023-02-18T08:20:17.741Z,16.64
2023-02-18T08:22:45.890Z,16.70
2023-02-18T08:25:28.584Z,16.73
2023-02-18T08:27:57.621Z,16.75
2023-02-18T08:30:26.500Z,16.79
2023-02-18T08:32:54.901Z,16.86
2023-02-18T08:35:23.087Z,16.85
2023-02-18T08:37:53.188Z,16.83
2023-02-18T08:40:22.996Z,16.86
2023-02-18T08:42:51.093Z,16.97
2023-02-18T08:45:19.346Z,17.10
2023-02-18T08:48:19.565Z,17.17
2023-02-18T08:50:36.081Z,17.15
2023-02-18T08:53:04.902Z,17.12
2023-02-18T08:55:38.268Z,17.13
2023-02-18T08:58:07.052Z,17.09
2023-02-18T09:00:36.487Z,17.00
2023-02-18T09:03:05.021Z,16.95
2023-02-18T09:05:35.889Z,16.95
2023-02-18T09:08:05.091Z,16.95
2023-02-18T09:10:33.269Z,16.97
2023-02-18T09:13:01.549Z,16.97
2023-02-18T09:15:32.432Z,16.96
2023-02-18T09:18:03.176Z,16.94
2023-02-18T09:20:31.410Z,16.94
2023-02-18T09:23:00.918Z,16.98
2023-02-18T09:25:29.620Z,16.96
2023-02-18T09:27:57.869Z,16.88
2023-02-18T09:30:26.022Z,16.84
2023-02-18T09:32:54.618Z,16.86
2023-02-18T09:35:22.790Z,16.90
2023-02-18T09:37:50.859Z,16.91
2023-02-18T09:40:29.045Z,16.93
2023-02-18T09:42:57.351Z,16.96
2023-02-18T09:45:26.451Z,16.96
2023-02-18T09:47:54.848Z,16.93
2023-02-18T09:50:30.301Z,16.97
2023-02-18T09:53:01.124Z,16.97
2023-02-18T09:55:30.509Z,16.93
2023-02-18T09:58:07.440Z,16.92
2023-02-18T10:00:38.345Z,16.90
2023-02-18T10:03:23.696Z,16.90
2023-02-18T10:06:03.549Z,16.90
2023-02-18T10:08:37.333Z,16.90
2023-02-18T10:11:31.693Z,16.87
2023-02-18T10:14:01.225Z,16.88
2023-02-18T10:16:30.337Z,16.87
2023-02-18T10:19:19.741Z,16.86
2023-02-18T10:21:47.959Z,16.91
2023-02-18T10:24:30.041Z,17.01
2023-02-18T10:26:59.733Z,17.09
2023-02-18T10:29:28.230Z,17.15
2023-02-18T10:31:59.706Z,17.23
2023-02-18T10:34:49.893Z,17.31
2023-02-18T10:37:36.673Z,17.35
2023-02-18T10:40:18.006Z,17.34
2023-02-18T10:43:17.374Z,17.27
2023-02-18T10:46:01.417Z,17.23
2023-02-18T10:48:36.406Z,17.30
2023-02-18T10:51:20.009Z,17.37
2023-02-18T10:53:49.901Z,17.42
2023-02-18T10:56:40.281Z,17.51
2023-02-18T10:59:19.634Z,17.60
2023-02-18T11:01:57.538Z,17.59
2023-02-18T11:04:28.960Z,17.55
2023-02-18T11:06:57.187Z,17.50
2023-02-18T11:09:39.617Z,17.44
2023-02-18T11:12:18.391Z,17.43
2023-02-18T11:15:10.428Z,17.37
2023-02-18T11:17:39.831Z,17.27
2023-02-18T11:20:29.874Z,17.21
2023-02-18T11:23:20.236Z,17.12
2023-02-18T11:26:00.862Z,17.12
2023-02-18T11:28:42.038Z,17.19
2023-02-18T11:31:12.960Z,17.27
2023-02-18T11:33:43.840Z,17.27
2023-02-18T11:36:29.836Z,17.26
2023-02-18T11:39:04.715Z,17.29
2023-02-18T11:41:37.628Z,17.32
2023-02-18T11:44:07.545Z,17.32
2023-02-18T11:46:35.697Z,17.30
2023-02-18T11:49:34.897Z,17.29
2023-02-18T11:52:20.034Z,17.30
2023-02-18T11:55:19.024Z,17.28
2023-02-18T11:58:10.284Z,17.26
2023-02-18T12:00:53.832Z,17.30
2023-02-18T12:03:39.933Z,17.29
2023-02-18T12:06:14.706Z,17.21
2023-02-18T12:08:59.794Z,17.15
2023-02-18T12:11:32.042Z,17.17
2023-02-18T12:14:04.835Z,17.20
2023-02-18T12:17:02.730Z,17.19
2023-02-18T12:20:00.790Z,17.19
2023-02-18T12:22:46.168Z,17.19
2023-02-18T12:25:39.686Z,17.14
2023-02-18T12:28:33.916Z,17.06
2023-02-18T12:31:08.203Z,16.98
2023-02-18T12:33:37.316Z,16.97
2023-02-18T12:36:10.224Z,16.97
2023-02-18T12:38:56.847Z,16.94
2023-02-18T12:41:50.164Z,16.84
2023-02-18T12:44:33.638Z,16.77
2023-02-18T12:47:14.590Z,16.73
2023-02-18T12:50:02.238Z,16.67
2023-02-18T12:52:33.558Z,16.57
2023-02-18T12:55:20.480Z,16.54
2023-02-18T12:58:11.018Z,16.56
2023-02-18T13:00:58.153Z,16.56
2023-02-18T13:03:47.208Z,16.52
2023-02-18T13:06:18.838Z,16.49
2023-02-18T13:08:59.955Z,16.48
2023-02-18T13:11:31.308Z,16.47
2023-02-18T13:14:08.247Z,16.47
2023-02-18T13:16:36.682Z,16.46
2023-02-18T13:19:22.162Z,16.47
2023-02-18T13:21:52.738Z,16.49
2023-02-18T13:24:33.907Z,16.45
2023-02-18T13:27:26.605Z,16.41
2023-02-18T13:30:24.388Z,16.39
2023-02-18T13:33:14.864Z,16.40
2023-02-18T13:35:52.981Z,16.41
2023-02-18T13:38:40.055Z,16.43
2023-02-18T13:41:08.794Z,16.40
2023-02-18T13:43:37.448Z,16.41
2023-02-18T13:46:22.576Z,16.44
2023-02-18T13:49:01.035Z,16.47
2023-02-18T13:51:39.857Z,16.45
2023-02-18T13:54:17.309Z,16.44
2023-02-18T13:57:07.366Z,16.45
2023-02-18T13:59:53.024Z,16.43
2023-02-18T14:02:21.901Z,16.40
2023-02-18T14:04:58.261Z,16.36
2023-02-18T14:07:29.651Z,16.34
2023-02-18T14:10:00.346Z,16.40
2023-02-18T14:12:42.169Z,16.43
2023-02-18T14:15:19.760Z,16.45
2023-02-18T14:18:09.543Z,16.46
2023-02-18T14:20:39.733Z,16.37
2023-02-18T14:23:20.945Z,16.31
2023-02-18T14:26:07.813Z,16.24
2023-02-18T14:28:36.873Z,16.15
2023-02-18T14:31:17.218Z,16.09
2023-02-18T14:34:00.817Z,16.08
2023-02-18T14:36:51.674Z,16.09
2023-02-18T14:39:36.033Z,16.04
2023-02-18T14:42:27.957Z,16.01
2023-02-18T14:45:09.983Z,15.98
2023-02-18T14:47:58.400Z,15.90
2023-02-18T14:50:26.551Z,15.80
2023-02-18T14:52:57.728Z,15.77
2023-02-18T14:55:30.986Z,15.75
2023-02-18T14:58:01.844Z,15.76
2023-02-18T15:00:37.236Z,15.79
2023-02-18T15:03:16.354Z,15.80
2023-02-18T15:05:46.052Z,15.84
2023-02-18T15:08:18.490Z,15.91
2023-02-18T15:10:59.260Z,15.97
2023-02-18T15:13:35.548Z,15.95
2023-02-18T15:16:05.746Z,15.87
2023-02-18T15:18:37.345Z,15.83
2023-02-18T15:21:07.318Z,15.83
2023-02-18T15:23:37.440Z,15.83
2023-02-18T15:26:05.875Z,15.81
2023-02-18T15:28:41.877Z,15.77
2023-02-18T15:31:14.792Z,15.91
2023-02-18T15:33:44.152Z,16.22
2023-02-18T15:36:14.338Z,16.49
2023-02-18T15:38:44.655Z,16.71
2023-02-18T15:41:16.578Z,16.87
2023-02-18T15:44:16.038Z,17.05
2023-02-18T15:46:45.041Z,17.24
2023-02-18T15:49:19.336Z,17.37
2023-02-18T15:51:47.719Z,17.44
2023-02-18T15:54:18.179Z,17.47
2023-02-18T15:56:47.454Z,17.51
2023-02-18T15:59:20.239Z,17.57
2023-02-18T16:02:03.612Z,17.62
2023-02-18T16:04:33.124Z,17.70
2023-02-18T16:07:18.548Z,17.77
2023-02-18T16:09:46.936Z,17.80
2023-02-18T16:12:31.711Z,17.83
2023-02-18T16:15:00.108Z,17.86
2023-02-18T16:17:30.268Z,17.90
2023-02-18T16:20:16.050Z,17.94
2023-02-18T16:22:52.938Z,17.97
2023-02-18T16:25:26.981Z,18.01
2023-02-18T16:28:16.586Z,18.05
2023-02-18T16:30:47.699Z,18.07
2023-02-18T16:33:16.399Z,18.05
2023-02-18T16:35:50.536Z,18.07
2023-02-18T16:38:21.565Z,18.05
2023-02-18T16:40:50.499Z,18.05
2023-02-18T16:43:27.511Z,18.04
2023-02-18T16:46:19.063Z,17.99
2023-02-18T16:48:49.984Z,18.02
2023-02-18T16:51:25.573Z,18.06
2023-02-18T16:53:53.604Z,18.08
2023-02-18T16:56:25.007Z,18.09
2023-02-18T16:58:53.257Z,18.03
2023-02-18T17:01:30.269Z,17.99
2023-02-18T17:03:59.574Z,18.01
2023-02-18T17:06:28.514Z,18.00
2023-02-18T17:08:59.663Z,17.98
2023-02-18T17:11:33.081Z,17.98
2023-02-18T17:14:06.103Z,17.96
2023-02-18T17:16:34.492Z,17.90
2023-02-18T17:19:02.579Z,17.83
2023-02-18T17:21:30.716Z,17.80
2023-02-18T17:23:59.183Z,17.79
2023-02-18T17:26:29.029Z,17.77
2023-02-18T17:28:59.267Z,17.73
2023-02-18T17:31:29.159Z,17.73
2023-02-18T17:33:59.775Z,17.74
2023-02-18T17:36:27.733Z,17.76
2023-02-18T17:38:55.813Z,17.78
2023-02-18T17:41:23.794Z,17.79
2023-02-18T17:43:53.193Z,17.83
2023-02-18T17:46:22.182Z,17.84
2023-02-18T17:48:50.391Z,17.82
2023-02-18T17:51:26.190Z,17.80
2023-02-18T17:53:54.417Z,17.83
2023-02-18T17:56:22.880Z,17.83
2023-02-18T17:58:50.947Z,17.81
2023-02-18T18:01:21.252Z,17.78
2023-02-18T18:03:49.399Z,17.73
2023-02-18T18:06:18.628Z,17.71
2023-02-18T18:08:50.584Z,17.71
2023-02-18T18:11:23.341Z,17.70
2023-02-18T18:13:53.028Z,17.69
2023-02-18T18:16:21.209Z,17.70
2023-02-18T18:18:49.294Z,17.73
2023-02-18T18:21:34.628Z,17.75
2023-02-18T18:24:02.811Z,17.77
2023-02-18T18:26:30.906Z,17.76
2023-02-18T18:28:59.064Z,17.75
2023-02-18T18:31:27.127Z,17.79
2023-02-18T18:33:56.652Z,17.81
2023-02-18T18:36:24.917Z,17.80
2023-02-18T18:38:53.057Z,17.75
2023-02-18T18:41:21.953Z,17.68
2023-02-18T18:43:50.428Z,17.63
2023-02-18T18:46:18.799Z,17.65
2023-02-18T18:48:47.569Z,17.67
2023-02-18T18:51:16.723Z,17.70
2023-02-18T18:53:47.322Z,17.72
2023-02-18T18:56:15.791Z,17.72
2023-02-18T18:58:43.764Z,17.73
2023-02-18T19:01:17.122Z,17.72
2023-02-18T19:03:46.079Z,17.71
2023-02-18T19:06:16.051Z,17.71
2023-02-18T19:08:45.310Z,17.69
2023-02-18T19:11:16.454Z,17.64
2023-02-18T19:13:45.906Z,17.64
2023-02-18T19:18:46.696Z,16.35
2023-02-18T19:21:13.961Z,17.45
2023-02-18T19:23:42.433Z,17.56
2023-02-18T19:26:10.019Z,17.57
2023-02-18T19:28:37.242Z,17.58
2023-02-18T19:31:09.342Z,17.53
2023-02-18T19:33:38.516Z,17.42
2023-02-18T19:36:09.312Z,17.32
2023-02-18T19:38:39.071Z,17.31
2023-02-18T19:41:11.739Z,17.31
2023-02-18T19:43:39.520Z,17.31
2023-02-18T19:46:14.806Z,17.30
2023-02-18T19:48:42.126Z,17.31
2023-02-18T19:51:09.532Z,17.32
2023-02-18T19:53:41.093Z,17.29
2023-02-18T19:56:09.918Z,17.30
2023-02-18T19:58:44.500Z,17.26
2023-02-18T20:01:17.809Z,17.16
2023-02-18T20:03:59.621Z,17.06
2023-02-18T20:06:37.795Z,16.98
2023-02-18T20:09:08.172Z,16.90
2023-02-18T20:11:35.466Z,16.82
2023-02-18T20:14:03.767Z,16.73
2023-02-18T20:16:30.658Z,16.66
2023-02-18T20:18:59.333Z,16.60
2023-02-18T20:21:27.598Z,16.55
2023-02-18T20:23:54.660Z,16.49
2023-02-18T20:26:21.783Z,16.43
2023-02-18T20:28:48.762Z,16.37
2023-02-18T20:31:16.064Z,16.33
2023-02-18T20:33:43.379Z,16.30
2023-02-18T20:36:10.470Z,16.21
2023-02-18T20:38:37.468Z,16.09
2023-02-18T20:41:05.842Z,15.98
2023-02-18T20:43:36.998Z,15.91
2023-02-18T20:46:06.707Z,15.88
2023-02-18T20:48:34.822Z,15.84
2023-02-18T20:51:13.506Z,15.82
2023-02-18T20:53:41.169Z,15.76
2023-02-18T20:56:08.635Z,15.71
2023-02-18T20:58:36.364Z,15.67
2023-02-18T21:01:09.038Z,15.63
2023-02-18T21:03:36.743Z,15.58
2023-02-18T21:06:08.188Z,15.52
2023-02-18T21:08:40.661Z,15.48
2023-02-18T21:11:11.453Z,15.43
2023-02-18T21:13:39.551Z,15.37
2023-02-18T21:16:07.405Z,15.33
2023-02-18T21:18:35.775Z,15.27
2023-02-18T21:21:05.023Z,15.21
2023-02-18T21:23:32.892Z,15.19
2023-02-18T21:26:08.373Z,15.16
2023-02-18T21:28:35.109Z,15.07
2023-02-18T21:31:26.609Z,15.02
2023-02-18T21:33:53.646Z,14.97
2023-02-18T21:36:20.601Z,14.96
2023-02-18T21:38:54.708Z,14.94
2023-02-18T21:41:21.856Z,14.90
2023-02-18T21:43:48.805Z,14.92
2023-02-18T21:46:17.407Z,14.94
2023-02-18T21:49:05.182Z,14.95
2023-02-18T21:51:50.725Z,14.97
2023-02-18T21:54:19.601Z,15.00
2023-02-18T21:56:47.055Z,14.99
2023-02-18T21:59:14.592Z,14.98
2023-02-18T22:01:41.692Z,14.99
2023-02-18T22:04:08.517Z,15.01
2023-02-18T22:06:35.255Z,15.04
2023-02-18T22:09:03.813Z,15.04
2023-02-18T22:11:31.324Z,15.00
2023-02-18T22:13:59.516Z,14.99
2023-02-18T22:16:27.643Z,15.00
2023-02-18T22:18:59.828Z,15.02
2023-02-18T22:21:27.224Z,15.03
2023-02-18T22:23:54.073Z,15.03
2023-02-18T22:26:21.084Z,15.03
2023-02-18T22:28:54.719Z,15.01
2023-02-18T22:31:21.989Z,14.98
2023-02-18T22:33:51.565Z,14.95
2023-02-18T22:36:19.467Z,14.92
2023-02-18T22:38:46.554Z,14.89
2023-02-18T22:41:16.607Z,14.89
2023-02-18T22:43:43.446Z,14.86
2023-02-18T22:46:12.374Z,14.84
2023-02-18T22:48:39.373Z,14.84
2023-02-18T22:51:12.785Z,14.83
2023-02-18T22:53:41.107Z,14.84
2023-02-18T22:56:13.276Z,14.80
2023-02-18T22:58:40.960Z,14.75
2023-02-18T23:01:08.780Z,14.72
2023-02-18T23:03:39.713Z,14.68
2023-02-18T23:06:06.692Z,14.65
2023-02-18T23:08:37.508Z,14.64
2023-02-18T23:11:06.192Z,14.65
2023-02-18T23:13:33.021Z,14.64
2023-02-18T23:16:04.071Z,14.63
2023-02-18T23:18:31.619Z,14.62
2023-02-18T23:21:19.801Z,14.63
2023-02-18T23:23:51.430Z,14.63
2023-02-18T23:26:20.179Z,14.62
2023-02-18T23:28:46.993Z,14.59
2023-02-18T23:31:27.325Z,14.57
2023-02-18T23:33:55.997Z,14.54
2023-02-18T23:36:24.450Z,14.53
2023-02-18T23:38:52.644Z,14.53
2023-02-18T23:41:19.786Z,14.51
2023-02-18T23:43:46.761Z,14.48
2023-02-18T23:46:14.379Z,14.44
2023-02-18T23:48:41.184Z,14.43
2023-02-18T23:51:09.813Z,14.45
2023-02-18T23:53:37.723Z,14.45
2023-02-18T23:56:10.433Z,14.45
2023-02-18T23:58:37.224Z,14.39
